ADDS METAR Data INFO
IDs: Format: Raw Decoded Include TAF

Data at: 0920 UTC 17 Oct 2017

KDTW 170853Z 20005KT 10SM FEW220 06/04 A3025 RMK AO2 SLP245 T00560039 55003 $
KDTW 170753Z 19006KT 10SM FEW220 06/04 A3024 RMK AO2 SLP244 T00610044 $
KDTW 170653Z 20005KT 10SM CLR 06/04 A3026 RMK AO2 SLP248 T00610044 $
KDTW 170553Z 19004KT 10SM CLR 07/04 A3026 RMK AO2 SLP248 T00670044 10106 20061 56002 $
KDTW 170453Z 19006KT 10SM CLR 07/04 A3026 RMK AO2 SLP248 T00720044 401440056 $
KDTW 170353Z 00000KT 10SM CLR 07/04 A3026 RMK AO2 SLP248 T00720039 $
KDTW 170253Z 19003KT 10SM FEW200 08/04 A3026 RMK AO2 SLP251 T00780039 56003 $
KDTW 170153Z 18003KT 10SM FEW200 08/05 A3026 RMK AO2 SLP251 T00830050 $
KDTW 170053Z 18006KT 10SM FEW075 SCT200 09/04 A3027 RMK AO2 SLP254 T00940044 $
KDTW 162353Z 16005KT 10SM SCT075 BKN180 11/03 A3027 RMK AO2 SLP254 T01060033 10144 20106 53003 $
KDTW 162253Z 22005KT 10SM FEW065 BKN080 BKN150 12/02 A3027 RMK AO2 SLP251 T01220022 $
KDTW 162153Z 23007KT 10SM FEW065 BKN080 13/02 A3026 RMK AO2 SLP250 T01330017 $
KDTW 162053Z 00000KT 10SM SCT065 BKN085 13/01 A3026 RMK AO2 SLP250 T01330011 56008 $
KDTW 161953Z VRB03KT 10SM SCT065 BKN085 13/01 A3026 RMK AO2 SLP251 T01330011 $
KDTW 161853Z 32005KT 10SM SCT050 14/01 A3028 RMK AO2 SLP255 T01390011 $
KDTW 161753Z 33009KT 10SM FEW045 14/02 A3029 RMK AO2 SLP259 T01390017 10139 20067 58005 $
KDTW 161653Z 00000KT 10SM FEW040 FEW110 12/02 A3030 RMK AO2 SLP265 T01170017 $
KDTW 161553Z 32005KT 10SM FEW100 12/02 A3031 RMK AO2 SLP268 T01170022 $
KDTW 161453Z 36007KT 10SM FEW095 10/02 A3030 RMK AO2 SLP264 T01000022 50012 $
KDTW 161353Z 34004KT 10SM BKN095 08/04 A3030 RMK AO2 SLP265 T00830039 $
KDTW 161253Z 33004KT 10SM FEW075 BKN110 BKN200 07/04 A3029 RMK AO2 SLP258 T00670044 $
KDTW 161153Z 31005KT 10SM BKN075 BKN110 OVC200 07/04 A3027 RMK AO2 SLP252 T00670044 10067 20056 51017 $
KDTW 161053Z 31005KT 10SM SCT075 BKN110 07/05 A3025 RMK AO2 SLP246 T00670050 $
KDTW 160953Z 31006KT 10SM SCT075 BKN120 06/05 A3024 RMK AO2 SLP241 T00610050 $
KDTW 160853Z 30004KT 10SM SCT085 BKN120 07/05 A3022 RMK AO2 SLP234 T00670050 53012 $
KDTW 160753Z 33003KT 10SM FEW120 06/04 A3020 RMK AO2 SLP227 T00610044 $
KDTW 160653Z 32004KT 10SM CLR 06/04 A3019 RMK AO2 SLP225 T00610039 $
KDTW 160553Z 31005KT 10SM CLR 07/04 A3018 RMK AO2 SLP222 T00670039 10117 20067 51014 $
KDTW 160453Z 32006KT 10SM FEW035 08/04 A3017 RMK AO2 SLP217 T00780039 402330078 $
KDTW 160353Z 32006KT 10SM FEW035 08/04 A3016 RMK AO2 SLP212 T00830044 $
KDTW 160253Z 34005KT 10SM BKN035 10/04 A3014 RMK AO2 SLP206 T01000039 51037 $
KDTW 160153Z 35009KT 10SM BKN035 OVC045 11/04 A3011 RMK AO2 SLP195 T01060039 $
KDTW 160053Z 33011KT 10SM BKN045 12/05 A3007 RMK AO2 SLP180 T01170050 $
KDTW 152353Z 31012KT 10SM BKN050 12/04 A3003 RMK AO2 PK WND 32028/2324 SLP168 60000 T01170044 10178 20117 51051 $
KDTW 152253Z 31016G24KT 10SM BKN050 BKN230 13/06 A2998 RMK AO2 PK WND 30033/2159 SLP150 T01280061 $
KDTW 152153Z 29021G27KT 10SM BKN040 BKN230 14/08 A2993 RMK AO2 PK WND 29029/2136 SLP132 T01390083 $